Time;durP1;ratioP1;P1;durP2;ratioP2;P2;SDS_P1;SDS_P2;PMS_P1;PMS_P2;Temp;Humidity;BMP_temperature;BMP_pressure;BME280_temperature;BME280_humidity;BME280_pressure;Samples;Min_cycle;Max_cycle;Signal;HPM_P1;HPM_P2
2022/03/29 00:02:17;;;;;;;91.13;51.47;;;7.80;99.90;;;;;;5065036;28;37037;-77
2022/03/29 00:04:43;;;;;;;84.57;49.37;;;7.80;99.90;;;;;;5065790;28;38401;-77
2022/03/29 00:07:09;;;;;;;81.83;47.67;;;7.70;99.90;;;;;;5065374;28;37540;-77
2022/03/29 00:09:36;;;;;;;86.80;50.73;;;7.70;99.90;;;;;;5065479;28;38375;-77
2022/03/29 00:12:02;;;;;;;94.93;52.70;;;7.70;99.90;;;;;;5060312;27;38780;-77
2022/03/29 00:14:28;;;;;;;93.53;52.40;;;7.70;99.90;;;;;;5045698;28;38083;-77
2022/03/29 00:16:55;;;;;;;86.10;49.37;;;7.70;99.90;;;;;;5062610;28;38920;-78
2022/03/29 00:19:21;;;;;;;91.10;50.17;;;7.70;99.90;;;;;;5064416;27;38327;-77
2022/03/29 00:21:47;;;;;;;83.30;49.37;;;7.70;99.90;;;;;;5065026;28;36858;-77
2022/03/29 00:24:13;;;;;;;89.83;49.67;;;7.70;99.90;;;;;;5062840;28;37058;-77
2022/03/29 00:26:39;;;;;;;87.50;50.73;;;7.60;99.90;;;;;;5058298;28;38075;-77
2022/03/29 00:29:08;;;;;;;95.33;52.57;;;7.60;99.90;;;;;;5063876;28;39035;-77
2022/03/29 00:31:34;;;;;;;79.63;48.53;;;7.60;99.90;;;;;;5061983;28;38761;-76
2022/03/29 00:34:00;;;;;;;95.40;51.03;;;7.60;99.90;;;;;;5063272;28;36181;-76
2022/03/29 00:36:27;;;;;;;104.60;53.27;;;7.60;99.90;;;;;;5064222;28;38633;-77
2022/03/29 00:38:54;;;;;;;86.80;50.93;;;7.70;99.90;;;;;;5064156;28;38611;-76
2022/03/29 00:41:21;;;;;;;97.37;53.00;;;7.70;99.90;;;;;;5062740;28;36888;-76
2022/03/29 00:43:47;;;;;;;93.80;53.10;;;7.70;99.90;;;;;;5061694;28;38122;-77
2022/03/29 00:46:13;;;;;;;101.00;55.33;;;7.70;99.90;;;;;;5067963;28;39995;-76
2022/03/29 00:48:39;;;;;;;89.70;50.73;;;7.70;99.90;;;;;;5062437;28;37435;-76
2022/03/29 00:51:06;;;;;;;96.20;52.30;;;7.70;99.90;;;;;;5063838;28;37960;-76
2022/03/29 00:53:32;;;;;;;95.93;54.60;;;7.70;99.90;;;;;;5065729;28;37524;-76
2022/03/29 00:55:59;;;;;;;91.57;51.80;;;7.70;99.90;;;;;;5065490;28;38988;-76
2022/03/29 00:58:26;;;;;;;85.00;48.63;;;7.70;99.90;;;;;;5063109;28;39277;-76
2022/03/29 01:00:58;;;;;;;78.53;49.57;;;7.80;99.90;;;;;;5061709;28;39760;-77
2022/03/29 01:03:24;;;;;;;92.82;52.13;;;7.80;99.90;;;;;;5059981;28;36360;-76
2022/03/29 01:05:50;;;;;;;90.47;53.17;;;7.80;99.90;;;;;;5064649;28;39522;-77
2022/03/29 01:08:17;;;;;;;87.53;52.17;;;7.90;99.90;;;;;;5066311;28;38508;-76
2022/03/29 01:10:45;;;;;;;88.83;51.17;;;7.90;99.90;;;;;;5067812;28;38397;-76
2022/03/29 01:13:12;;;;;;;82.83;50.63;;;7.90;99.90;;;;;;5066748;28;36304;-76
2022/03/29 01:15:40;;;;;;;97.17;53.20;;;7.90;99.90;;;;;;5062507;28;37787;-76
2022/03/29 01:18:07;;;;;;;93.03;54.13;;;8.00;99.90;;;;;;5066651;28;39425;-76
2022/03/29 01:20:35;;;;;;;104.00;56.13;;;8.00;99.90;;;;;;5064224;28;37587;-76
2022/03/29 01:23:01;;;;;;;84.67;50.33;;;8.00;99.90;;;;;;5059784;28;35983;-76
2022/03/29 01:25:37;;;;;;;84.40;49.93;;;8.00;99.90;;;;;;5069971;28;49109;-76
2022/03/29 01:28:05;;;;;;;99.67;54.33;;;8.00;99.90;;;;;;5064354;28;38926;-76
2022/03/29 01:30:32;;;;;;;83.00;50.53;;;8.00;99.90;;;;;;5062508;28;40016;-76
2022/03/29 01:33:01;;;;;;;89.00;49.70;;;8.00;99.90;;;;;;5064458;28;35890;-76
2022/03/29 01:35:28;;;;;;;95.57;52.10;;;8.00;99.90;;;;;;5061411;28;47362;-76
2022/03/29 01:37:55;;;;;;;98.80;53.47;;;8.10;99.90;;;;;;5078731;28;38716;-76
2022/03/29 01:40:24;;;;;;;86.40;50.00;;;8.10;99.90;;;;;;5061974;28;38946;-76
2022/03/29 01:42:53;;;;;;;95.83;55.17;;;8.10;99.90;;;;;;5068458;28;38148;-76
2022/03/29 01:45:21;;;;;;;86.77;50.27;;;8.10;99.90;;;;;;5061258;28;40222;-76
2022/03/29 01:47:47;;;;;;;83.17;49.50;;;8.10;99.90;;;;;;5063545;28;38927;-76
2022/03/29 01:50:14;;;;;;;90.93;54.10;;;8.10;99.90;;;;;;5069940;28;38220;-77
2022/03/29 01:52:42;;;;;;;98.70;53.67;;;8.10;99.90;;;;;;5067187;28;37295;-76
2022/03/29 01:55:09;;;;;;;80.77;49.87;;;8.10;99.90;;;;;;5070474;28;37878;-76
2022/03/29 01:57:36;;;;;;;81.57;49.83;;;8.10;99.90;;;;;;5070374;28;38414;-76
2022/03/29 02:02:53;;;;;;;96.97;51.67;;;8.20;99.90;;;;;;5071670;27;37950;-76
2022/03/29 02:05:20;;;;;;;77.33;48.93;;;8.20;99.90;;;;;;5070477;28;38173;-76
2022/03/29 02:07:46;;;;;;;82.30;50.10;;;8.20;99.90;;;;;;5067748;28;38476;-76
2022/03/29 02:10:19;;;;;;;87.37;50.60;;;8.20;99.90;;;;;;5069210;28;38969;-76
2022/03/29 02:12:47;;;;;;;89.73;50.27;;;8.20;99.90;;;;;;5067970;28;37371;-76
2022/03/29 02:15:13;;;;;;;88.07;50.77;;;8.20;99.90;;;;;;5064917;28;38763;-76
2022/03/29 02:17:41;;;;;;;80.03;50.27;;;8.10;99.90;;;;;;5068140;28;38450;-76
2022/03/29 02:20:08;;;;;;;88.70;51.63;;;8.10;99.90;;;;;;5066825;28;38473;-76
2022/03/29 02:22:34;;;;;;;83.10;53.23;;;8.10;99.90;;;;;;5050782;28;37868;-76
2022/03/29 02:25:00;;;;;;;92.30;53.17;;;8.20;99.90;;;;;;5067169;28;40184;-76
2022/03/29 02:27:26;;;;;;;83.57;49.33;;;8.10;99.90;;;;;;5071747;28;39442;-76
2022/03/29 02:29:53;;;;;;;78.53;48.30;;;8.10;99.90;;;;;;5065274;28;39061;-77
2022/03/29 02:32:19;;;;;;;95.23;51.07;;;8.10;99.90;;;;;;5064733;28;38708;-77
2022/03/29 02:34:45;;;;;;;81.50;48.80;;;8.10;99.90;;;;;;5065744;28;37816;-77
2022/03/29 02:37:13;;;;;;;85.03;50.10;;;8.00;99.90;;;;;;5068729;28;38141;-77
2022/03/29 02:39:39;;;;;;;93.00;51.03;;;8.00;99.90;;;;;;5064637;28;38328;-77
2022/03/29 02:42:07;;;;;;;91.80;51.37;;;8.00;99.90;;;;;;5065213;28;36935;-77
2022/03/29 02:44:33;;;;;;;87.20;51.30;;;8.00;99.90;;;;;;5065442;28;40282;-77
2022/03/29 02:46:59;;;;;;;85.60;50.50;;;8.00;99.90;;;;;;5066510;28;39610;-77
2022/03/29 02:49:26;;;;;;;86.03;49.03;;;8.00;99.90;;;;;;5070786;28;38142;-77
2022/03/29 02:51:52;;;;;;;93.80;52.50;;;7.90;99.90;;;;;;5068140;28;37182;-77
2022/03/29 02:54:22;;;;;;;91.30;52.90;;;7.90;99.90;;;;;;5070729;27;38656;-77
2022/03/29 02:56:48;;;;;;;90.77;52.53;;;7.90;99.90;;;;;;5066006;28;38764;-78
2022/03/29 02:59:14;;;;;;;95.20;52.63;;;7.90;99.90;;;;;;5065180;28;38819;-76
2022/03/29 03:01:41;;;;;;;89.10;51.87;;;7.90;99.90;;;;;;5066883;28;38257;-77
2022/03/29 03:04:12;;;;;;;98.07;54.37;;;7.90;99.90;;;;;;5067005;28;38768;-76
2022/03/29 03:06:42;;;;;;;100.95;52.30;;;7.90;99.90;;;;;;5067775;28;38432;-76
2022/03/29 03:09:09;;;;;;;90.23;51.13;;;7.80;99.90;;;;;;5069991;28;38440;-77
2022/03/29 03:11:36;;;;;;;95.60;52.77;;;7.70;99.90;;;;;;5065141;28;39547;-77
2022/03/29 03:14:02;;;;;;;83.20;48.63;;;7.70;99.90;;;;;;5070444;28;39779;-77
2022/03/29 03:16:28;;;;;;;98.47;51.87;;;7.70;99.90;;;;;;5068052;28;48803;-77
2022/03/29 03:18:54;;;;;;;86.87;47.27;;;7.60;99.90;;;;;;5067197;28;37691;-77
2022/03/29 03:21:20;;;;;;;88.77;50.30;;;7.60;99.90;;;;;;5069327;28;37440;-76
2022/03/29 03:23:46;;;;;;;93.70;52.03;;;7.50;99.90;;;;;;5067443;28;39083;-77
2022/03/29 03:26:13;;;;;;;85.40;48.30;;;7.50;99.90;;;;;;5066033;28;37165;-76
2022/03/29 03:28:39;;;;;;;94.07;50.17;;;7.50;99.90;;;;;;5062920;28;38543;-77
2022/03/29 03:31:05;;;;;;;88.57;49.57;;;7.50;99.90;;;;;;5062439;28;36793;-77
2022/03/29 03:33:31;;;;;;;89.17;47.90;;;7.50;99.90;;;;;;5059753;28;38772;-76
2022/03/29 03:35:57;;;;;;;94.47;50.00;;;7.50;99.90;;;;;;5066354;28;38416;-76
2022/03/29 03:38:23;;;;;;;98.63;51.63;;;7.50;99.90;;;;;;5073551;28;37592;-77
2022/03/29 03:40:49;;;;;;;100.83;52.33;;;7.40;99.90;;;;;;5062725;28;37551;-76
2022/03/29 03:43:15;;;;;;;90.27;50.57;;;7.40;99.90;;;;;;5060687;28;37052;-76
2022/03/29 03:45:41;;;;;;;89.40;49.30;;;7.40;99.90;;;;;;5063753;28;40014;-76
2022/03/29 03:48:08;;;;;;;91.80;50.93;;;7.50;99.90;;;;;;5064612;28;39182;-76
2022/03/29 03:50:34;;;;;;;94.80;51.33;;;7.50;99.90;;;;;;5068755;28;36763;-77
2022/03/29 03:53:00;;;;;;;92.57;50.17;;;7.50;99.90;;;;;;5065969;28;39044;-77
2022/03/29 03:55:27;;;;;;;92.07;49.30;;;7.30;99.90;;;;;;5061205;28;39949;-77
2022/03/29 03:57:53;;;;;;;94.80;49.20;;;7.30;99.90;;;;;;5062726;28;38705;-76
2022/03/29 04:00:21;;;;;;;87.47;50.30;;;7.30;99.90;;;;;;5061455;28;37966;-77
2022/03/29 04:02:50;;;;;;;89.03;47.67;;;7.30;99.90;;;;;;5065226;28;40940;-76
2022/03/29 04:05:17;;;;;;;93.70;51.20;;;7.30;99.90;;;;;;5063144;28;39430;-76
2022/03/29 04:07:44;;;;;;;93.20;49.90;;;7.30;99.90;;;;;;5061802;28;39680;-76
2022/03/29 04:10:11;;;;;;;89.70;50.93;;;7.30;99.90;;;;;;5063770;28;38148;-77
2022/03/29 04:12:40;;;;;;;91.30;49.70;;;7.30;99.90;;;;;;5061978;28;39584;-77
2022/03/29 04:15:06;;;;;;;94.33;49.40;;;7.20;99.90;;;;;;5059069;28;35578;-76
2022/03/29 04:17:32;;;;;;;101.67;53.60;;;7.20;99.90;;;;;;5062692;28;38572;-76
2022/03/29 04:20:00;;;;;;;97.13;52.23;;;7.20;99.90;;;;;;5061078;28;36406;-76
2022/03/29 04:22:26;;;;;;;84.70;47.30;;;7.10;99.90;;;;;;5063556;27;39076;-76
2022/03/29 04:24:52;;;;;;;87.63;48.77;;;7.10;99.90;;;;;;5062251;28;38068;-77
2022/03/29 04:27:18;;;;;;;83.47;46.63;;;7.20;99.90;;;;;;5060283;27;36931;-76
2022/03/29 04:29:44;;;;;;;95.43;52.00;;;7.20;99.90;;;;;;5059701;28;36959;-77
2022/03/29 04:32:10;;;;;;;109.83;54.33;;;7.20;99.90;;;;;;5061640;28;38458;-76
2022/03/29 04:34:36;;;;;;;87.97;48.97;;;7.30;99.90;;;;;;5062342;28;38741;-76
2022/03/29 04:37:03;;;;;;;92.10;50.73;;;7.30;99.90;;;;;;5064465;27;38211;-76
2022/03/29 04:39:31;;;;;;;103.73;50.93;;;7.30;99.90;;;;;;5061908;28;38751;-78
2022/03/29 04:41:57;;;;;;;90.83;48.53;;;7.30;99.90;;;;;;5060872;28;37615;-76
2022/03/29 04:44:24;;;;;;;96.37;50.40;;;7.20;99.90;;;;;;5061681;28;37282;-76
2022/03/29 04:46:50;;;;;;;83.87;47.70;;;7.20;99.90;;;;;;5060859;28;38228;-76
2022/03/29 04:49:16;;;;;;;85.70;47.60;;;7.20;99.90;;;;;;5061269;28;37891;-76
2022/03/29 04:51:42;;;;;;;88.20;48.83;;;7.20;99.90;;;;;;5063006;28;38609;-76
2022/03/29 04:54:09;;;;;;;86.50;49.17;;;7.20;99.90;;;;;;5063564;28;37032;-76
2022/03/29 04:56:35;;;;;;;96.63;50.93;;;7.20;99.90;;;;;;5060164;28;38226;-77
2022/03/29 04:59:02;;;;;;;86.90;47.50;;;7.20;99.90;;;;;;5059293;28;38300;-77
2022/03/29 05:01:28;;;;;;;79.70;45.60;;;7.20;99.90;;;;;;5063646;28;38900;-76
2022/03/29 05:03:54;;;;;;;91.13;49.53;;;7.20;99.90;;;;;;5059799;28;38789;-76
2022/03/29 05:06:20;;;;;;;86.17;47.30;;;7.30;99.90;;;;;;5062199;28;38486;-77
2022/03/29 05:08:46;;;;;;;89.10;48.23;;;7.30;99.90;;;;;;5060934;28;37981;-77
2022/03/29 05:11:12;;;;;;;83.57;46.57;;;7.30;99.90;;;;;;5058314;28;40418;-77
2022/03/29 05:13:38;;;;;;;90.10;48.07;;;7.30;99.90;;;;;;5063412;27;38885;-77
2022/03/29 05:16:05;;;;;;;103.20;50.47;;;7.30;99.90;;;;;;5063722;28;39001;-76
2022/03/29 05:18:31;;;;;;;83.13;47.23;;;7.20;99.90;;;;;;5063002;28;37504;-77
2022/03/29 05:20:57;;;;;;;100.50;50.53;;;7.20;99.90;;;;;;5060118;28;39444;-77
2022/03/29 05:23:23;;;;;;;102.50;49.40;;;7.20;99.90;;;;;;5055634;28;37714;-76
2022/03/29 05:25:49;;;;;;;81.47;46.40;;;7.20;99.90;;;;;;5061676;28;37338;-77
2022/03/29 05:28:15;;;;;;;89.37;47.13;;;7.10;99.90;;;;;;5061363;27;37642;-76
2022/03/29 05:30:41;;;;;;;80.03;44.20;;;7.10;99.90;;;;;;5058163;28;39430;-76
2022/03/29 05:33:15;;;;;;;71.07;41.60;;;7.20;99.90;;;;;;5063073;28;38348;-76
2022/03/29 05:35:43;;;;;;;77.53;42.07;;;7.20;99.90;;;;;;5056758;28;38123;-76
2022/03/29 05:38:09;;;;;;;85.40;45.07;;;7.20;99.90;;;;;;5058940;28;36174;-76
2022/03/29 05:40:35;;;;;;;82.93;45.50;;;7.20;99.90;;;;;;5065815;28;38677;-77
2022/03/29 05:43:01;;;;;;;88.93;47.43;;;7.20;99.90;;;;;;5064457;28;38629;-77
2022/03/29 05:45:29;;;;;;;84.97;45.47;;;7.20;99.90;;;;;;5059665;28;48855;-77
2022/03/29 05:50:39;;;;;;;81.17;43.27;;;7.10;99.90;;;;;;5062665;28;49173;-76
2022/03/29 05:53:06;;;;;;;80.13;43.93;;;7.10;99.90;;;;;;5068975;28;38572;-76
2022/03/29 05:55:32;;;;;;;82.50;44.20;;;7.10;99.90;;;;;;5055877;28;38089;-76
2022/03/29 05:57:58;;;;;;;90.00;46.80;;;7.10;99.90;;;;;;5063553;28;37381;-76
2022/03/29 06:00:25;;;;;;;94.27;48.27;;;7.10;99.90;;;;;;5059828;28;40052;-76
2022/03/29 06:02:53;;;;;;;93.53;48.03;;;7.10;99.90;;;;;;5059206;28;38716;-76
2022/03/29 06:05:20;;;;;;;105.50;49.43;;;7.10;99.90;;;;;;5061140;28;38784;-77
2022/03/29 06:07:46;;;;;;;93.73;46.70;;;7.10;99.90;;;;;;5061510;28;38814;-77
2022/03/29 06:10:12;;;;;;;82.43;43.90;;;7.10;99.90;;;;;;5062340;28;39687;-76
2022/03/29 06:12:39;;;;;;;95.53;46.73;;;7.10;99.90;;;;;;5059083;28;38937;-77
2022/03/29 06:15:07;;;;;;;77.37;42.47;;;7.10;99.90;;;;;;5058055;28;39722;-77
2022/03/29 06:17:34;;;;;;;84.73;42.80;;;7.00;99.90;;;;;;5055839;28;37880;-78
2022/03/29 06:20:01;;;;;;;83.77;43.27;;;7.10;99.90;;;;;;5061972;28;38808;-78
2022/03/29 06:22:27;;;;;;;98.03;45.87;;;7.10;99.90;;;;;;5055421;28;47163;-77
2022/03/29 06:24:54;;;;;;;84.40;43.37;;;7.10;99.90;;;;;;5062660;28;37918;-78
2022/03/29 06:27:20;;;;;;;79.20;42.30;;;7.10;99.90;;;;;;5079159;28;38929;-78
2022/03/29 06:29:46;;;;;;;84.80;43.43;;;7.20;99.90;;;;;;5058120;28;39605;-78
2022/03/29 06:32:12;;;;;;;75.73;42.93;;;7.30;99.90;;;;;;5062838;28;38293;-78
2022/03/29 06:34:38;;;;;;;80.37;44.20;;;7.30;99.90;;;;;;5061224;28;38571;-78
2022/03/29 06:37:04;;;;;;;80.40;43.53;;;7.30;99.90;;;;;;5060977;27;38514;-79
2022/03/29 06:39:31;;;;;;;75.30;41.13;;;7.30;99.90;;;;;;5052811;28;39761;-79
2022/03/29 06:41:57;;;;;;;72.90;39.30;;;7.30;99.90;;;;;;5071848;28;37834;-77
2022/03/29 06:44:23;;;;;;;73.03;39.73;;;7.20;99.90;;;;;;5063866;28;38465;-77
2022/03/29 06:46:49;;;;;;;75.23;41.33;;;7.20;99.90;;;;;;5069494;28;38209;-77
2022/03/29 06:49:16;;;;;;;71.53;41.00;;;7.20;99.90;;;;;;5060511;28;39349;-77
2022/03/29 06:51:44;;;;;;;76.97;42.43;;;7.20;99.90;;;;;;5077798;28;38382;-77
2022/03/29 06:54:10;;;;;;;71.83;42.13;;;7.30;99.90;;;;;;5065862;28;38460;-77
2022/03/29 06:56:36;;;;;;;79.77;43.73;;;7.30;99.90;;;;;;5065536;28;37546;-76
2022/03/29 06:59:03;;;;;;;80.67;43.20;;;7.30;99.90;;;;;;5081501;28;39357;-77
2022/03/29 07:01:29;;;;;;;80.93;42.67;;;7.30;99.90;;;;;;5066495;28;38528;-76
2022/03/29 07:03:59;;;;;;;82.07;42.93;;;7.30;99.90;;;;;;5066513;27;39117;-77
2022/03/29 07:06:31;;;;;;;80.93;44.33;;;7.30;99.90;;;;;;5065163;28;38811;-76
2022/03/29 07:11:42;;;;;;;75.53;41.60;;;7.30;99.90;;;;;;5065808;28;49919;-77
2022/03/29 07:14:09;;;;;;;75.07;40.20;;;7.30;99.90;;;;;;5058475;28;38550;-76
2022/03/29 07:16:35;;;;;;;67.87;38.10;;;7.30;99.90;;;;;;5059097;28;37504;-77
2022/03/29 07:19:01;;;;;;;70.83;38.80;;;7.40;99.90;;;;;;5063196;28;37681;-76
2022/03/29 07:21:27;;;;;;;69.67;40.70;;;7.50;99.90;;;;;;5062440;28;38672;-77
2022/03/29 07:23:53;;;;;;;80.80;42.27;;;7.60;99.90;;;;;;5063721;28;38887;-77
2022/03/29 07:26:19;;;;;;;74.00;41.70;;;7.70;99.90;;;;;;5065777;27;37375;-77
2022/03/29 07:28:46;;;;;;;66.73;37.13;;;7.70;99.90;;;;;;5062280;28;38674;-75
2022/03/29 07:31:12;;;;;;;57.37;35.93;;;7.70;99.90;;;;;;5043940;28;38906;-75
2022/03/29 07:33:38;;;;;;;61.93;37.23;;;7.90;99.90;;;;;;5061678;28;38270;-76
2022/03/29 07:36:04;;;;;;;56.07;33.93;;;7.80;99.90;;;;;;5065073;28;37107;-78
2022/03/29 07:38:31;;;;;;;71.60;37.90;;;7.80;99.90;;;;;;5063869;28;38958;-77
2022/03/29 07:40:57;;;;;;;63.37;37.33;;;7.80;99.90;;;;;;5064746;28;39493;-78
2022/03/29 07:43:23;;;;;;;61.03;38.10;;;7.80;99.90;;;;;;5065707;28;39373;-78
2022/03/29 07:45:49;;;;;;;59.10;36.77;;;7.80;99.90;;;;;;5065476;28;38089;-77
2022/03/29 07:48:15;;;;;;;63.57;38.57;;;7.90;99.90;;;;;;5060456;28;37390;-77
2022/03/29 07:50:41;;;;;;;68.43;38.50;;;8.00;99.90;;;;;;5065485;27;38141;-77
2022/03/29 07:53:08;;;;;;;68.57;41.43;;;8.00;99.90;;;;;;5062396;28;38508;-76
2022/03/29 07:55:36;;;;;;;58.37;36.53;;;8.00;99.90;;;;;;5064836;28;37548;-76
2022/03/29 07:58:02;;;;;;;58.63;36.23;;;8.10;99.90;;;;;;5063075;27;39156;-76
2022/03/29 08:00:31;;;;;;;60.87;37.00;;;8.10;99.90;;;;;;5062626;28;39232;-77
2022/03/29 08:03:11;;;;;;;60.57;37.27;;;8.20;99.90;;;;;;5061747;28;38823;-76
2022/03/29 08:05:41;;;;;;;61.13;35.87;;;8.10;99.90;;;;;;5060073;28;48497;-77
2022/03/29 08:08:07;;;;;;;58.13;36.30;;;8.20;99.90;;;;;;5061538;28;40217;-76
2022/03/29 08:10:34;;;;;;;61.30;36.83;;;8.20;99.90;;;;;;5064972;28;38860;-77
2022/03/29 08:13:02;;;;;;;59.87;35.50;;;8.30;99.90;;;;;;5061203;28;38635;-76
2022/03/29 08:15:29;;;;;;;53.23;34.27;;;8.30;99.90;;;;;;5063910;28;47734;-76
2022/03/29 08:17:56;;;;;;;55.53;35.03;;;8.50;99.90;;;;;;5066204;28;39998;-74
2022/03/29 08:20:23;;;;;;;56.07;34.90;;;8.50;99.90;;;;;;5064104;28;39617;-75
2022/03/29 08:22:49;;;;;;;59.30;34.30;;;8.50;99.90;;;;;;5063300;28;38112;-77
2022/03/29 08:25:16;;;;;;;55.37;35.00;;;8.20;99.90;;;;;;5066190;28;37529;-75
2022/03/29 08:27:45;;;;;;;59.53;35.90;;;8.10;99.90;;;;;;5064796;28;37867;-75
2022/03/29 08:30:12;;;;;;;54.10;34.40;;;8.10;99.90;;;;;;5054731;28;38546;-76
2022/03/29 08:32:39;;;;;;;62.30;37.27;;;8.00;99.90;;;;;;5062255;28;38578;-75
2022/03/29 08:35:08;;;;;;;62.23;35.93;;;8.10;99.90;;;;;;5059716;28;38884;-76
2022/03/29 08:37:35;;;;;;;58.77;35.10;;;8.20;99.90;;;;;;5079438;28;38782;-75
2022/03/29 08:40:06;;;;;;;57.43;34.03;;;8.30;99.90;;;;;;5063964;28;37317;-75
2022/03/29 08:42:32;;;;;;;64.93;37.10;;;8.40;99.90;;;;;;5063754;28;46836;-75
2022/03/29 08:44:59;;;;;;;64.30;37.53;;;8.40;99.90;;;;;;5065490;28;37589;-75
2022/03/29 08:47:26;;;;;;;65.47;39.73;;;8.60;99.90;;;;;;5061279;28;38655;-75
2022/03/29 08:49:53;;;;;;;60.20;36.13;;;8.70;99.90;;;;;;5065172;28;38613;-75
2022/03/29 08:52:20;;;;;;;58.70;34.47;;;8.90;99.90;;;;;;5063484;28;37857;-76
2022/03/29 08:54:46;;;;;;;52.03;33.07;;;9.00;99.90;;;;;;5066927;28;37414;-75
2022/03/29 08:57:13;;;;;;;54.70;34.57;;;8.90;99.90;;;;;;5064925;28;38780;-76
2022/03/29 08:59:40;;;;;;;51.92;32.75;;;8.80;99.90;;;;;;5063149;28;37032;-76
2022/03/29 09:02:13;;;;;;;54.77;34.40;;;8.70;99.90;;;;;;5061785;28;37923;-77
2022/03/29 09:04:39;;;;;;;55.63;34.83;;;8.70;99.90;;;;;;5064767;28;37629;-75
2022/03/29 09:07:08;;;;;;;55.40;34.90;;;8.60;99.90;;;;;;5068112;27;37816;-75
2022/03/29 09:09:37;;;;;;;57.07;34.63;;;8.80;99.90;;;;;;5061909;28;38694;-76
2022/03/29 09:12:14;;;;;;;51.50;34.13;;;9.00;99.90;;;;;;5066200;28;39166;-76
2022/03/29 09:14:59;;;;;;;56.40;35.25;;;9.10;99.90;;;;;;5064347;28;38339;-76
2022/03/29 09:17:31;;;;;;;48.00;32.30;;;9.10;99.90;;;;;;5060786;28;39384;-76
2022/03/29 09:19:59;;;;;;;50.33;31.77;;;9.20;99.90;;;;;;5078909;28;38129;-76
2022/03/29 09:22:44;;;;;;;52.53;32.30;;;9.10;99.90;;;;;;5051410;27;38082;-76
2022/03/29 09:25:16;;;;;;;45.45;30.40;;;9.10;99.90;;;;;;5041803;28;37927;-76
2022/03/29 09:27:54;;;;;;;46.53;31.27;;;9.10;99.90;;;;;;5072035;28;37758;-77
2022/03/29 09:30:21;;;;;;;46.45;31.23;;;9.20;99.90;;;;;;5055921;28;38265;-76
2022/03/29 09:33:10;;;;;;;53.50;33.60;;;9.20;99.90;;;;;;5060697;28;38439;-76
2022/03/29 09:36:00;;;;;;;53.70;32.38;;;9.20;99.90;;;;;;5060012;28;48838;-76
2022/03/29 09:38:43;;;;;;;52.92;33.17;;;9.40;99.90;;;;;;5059985;28;40728;-76
2022/03/29 09:41:28;;;;;;;;;;;9.40;99.90;;;;;;5061399;28;39043;-75
2022/03/29 09:44:11;;;;;;;46.60;30.85;;;9.30;99.90;;;;;;5048924;28;37945;-75
2022/03/29 09:47:04;;;;;;;48.33;31.00;;;9.40;99.90;;;;;;5063322;28;48286;-75
2022/03/29 09:49:48;;;;;;;;;;;9.60;99.90;;;;;;5059169;28;47206;-75
2022/03/29 09:52:18;;;;;;;45.40;30.83;;;9.80;99.90;;;;;;5077827;28;37341;-74
2022/03/29 09:55:15;;;;;;;47.53;30.88;;;10.10;99.90;;;;;;5062258;28;37880;-76
2022/03/29 09:57:50;;;;;;;42.88;29.70;;;9.80;99.90;;;;;;5053285;28;47570;-75
2022/03/29 10:00:19;;;;;;;44.15;30.20;;;9.70;99.90;;;;;;5059339;28;39533;-75
2022/03/29 10:02:47;;;;;;;43.83;29.75;;;9.70;99.90;;;;;;5062507;27;38419;-76
2022/03/29 10:05:18;;;;;;;43.50;29.40;;;9.60;99.90;;;;;;5052200;28;38060;-75
2022/03/29 10:10:45;;;;;;;45.05;30.73;;;9.70;99.90;;;;;;5063665;28;49258;-75
2022/03/29 10:13:12;;;;;;;48.72;32.92;;;9.70;99.90;;;;;;5055303;28;37512;-75
2022/03/29 10:15:40;;;;;;;46.45;30.95;;;9.70;99.90;;;;;;5068369;28;38312;-76
2022/03/29 10:18:07;;;;;;;48.78;31.30;;;9.80;99.90;;;;;;5070554;27;38837;-75
2022/03/29 10:20:34;;;;;;;47.92;30.52;;;9.80;99.90;;;;;;5067265;28;38907;-75
2022/03/29 10:23:01;;;;;;;50.28;32.35;;;9.80;99.90;;;;;;5058632;28;36938;-75
2022/03/29 10:25:27;;;;;;;49.05;31.45;;;9.80;99.90;;;;;;5064690;28;49167;-77
2022/03/29 10:27:59;;;;;;;48.15;30.60;;;9.70;99.90;;;;;;5067057;28;35704;-77
2022/03/29 10:30:39;;;;;;;44.00;29.60;;;9.70;99.90;;;;;;5047183;28;37974;-76
2022/03/29 10:33:23;;;;;;;48.20;31.50;;;9.70;99.90;;;;;;5060578;28;37518;-77
2022/03/29 10:36:09;;;;;;;46.60;29.88;;;9.70;99.90;;;;;;5068457;28;38235;-76
2022/03/29 10:38:47;;;;;;;48.08;31.08;;;9.60;99.90;;;;;;5038371;28;47195;-77
2022/03/29 10:41:28;;;;;;;43.58;28.25;;;9.70;99.90;;;;;;5066372;28;40236;-76
2022/03/29 10:44:01;;;;;;;45.25;30.63;;;9.70;99.90;;;;;;5068446;28;38480;-76
2022/03/29 10:46:46;;;;;;;40.70;28.30;;;9.70;99.90;;;;;;5066693;28;38859;-77
2022/03/29 10:49:24;;;;;;;45.80;30.27;;;9.90;99.90;;;;;;5059685;28;36532;-76
2022/03/29 10:52:22;;;;;;;44.05;29.67;;;10.10;99.90;;;;;;5067386;28;38980;-76
2022/03/29 10:54:50;;;;;;;44.30;29.02;;;10.30;99.90;;;;;;5067897;28;47107;-77
2022/03/29 10:57:24;;;;;;;44.35;30.75;;;10.50;99.90;;;;;;5066873;28;37802;-77
2022/03/29 10:59:58;;;;;;;45.90;31.17;;;10.60;99.90;;;;;;5066146;28;36800;-77
2022/03/29 11:02:25;;;;;;;44.00;30.15;;;10.80;99.90;;;;;;5063805;27;39445;-76
2022/03/29 11:05:08;;;;;;;41.42;29.95;;;11.00;99.90;;;;;;5062836;28;38324;-78
2022/03/29 11:07:54;;;;;;;42.40;30.90;;;11.00;99.90;;;;;;5077579;27;47252;-76
2022/03/29 11:10:23;;;;;;;49.83;31.02;;;11.10;99.90;;;;;;5052592;28;37340;-79
2022/03/29 11:12:51;;;;;;;42.63;29.77;;;11.20;99.90;;;;;;5075653;28;37485;-78
2022/03/29 11:15:41;;;;;;;48.47;30.88;;;11.30;99.90;;;;;;5058051;28;38208;-78
2022/03/29 11:18:31;;;;;;;39.85;28.73;;;11.70;99.90;;;;;;5034360;28;37401;-78
2022/03/29 11:21:05;;;;;;;42.50;28.55;;;11.70;99.90;;;;;;5074138;28;38740;-79
2022/03/29 11:23:45;;;;;;;44.75;29.20;;;11.70;99.90;;;;;;5060083;28;48743;-79
2022/03/29 11:26:15;;;;;;;39.28;27.42;;;11.70;99.90;;;;;;5071195;28;38388;-79
2022/03/29 11:28:51;;;;;;;37.38;27.92;;;11.80;99.90;;;;;;5062527;28;39135;-79
2022/03/29 11:31:18;;;;;;;36.75;26.83;;;12.20;99.90;;;;;;5063222;28;37493;-79
2022/03/29 11:33:49;;;;;;;38.20;26.98;;;12.50;99.90;;;;;;5063828;27;38814;-79
2022/03/29 11:36:16;;;;;;;36.05;27.08;;;12.60;99.90;;;;;;5059526;28;38479;-78
2022/03/29 11:38:44;;;;;;;36.25;25.90;;;12.60;99.90;;;;;;5060313;28;39361;-79
2022/03/29 11:41:42;;;;;;;34.20;26.40;;;12.70;99.90;;;;;;5062374;28;37336;-79
2022/03/29 11:44:08;;;;;;;35.63;26.05;;;12.90;99.90;;;;;;5050208;28;39947;-77
2022/03/29 11:46:51;;;;;;;41.60;28.85;;;12.90;99.90;;;;;;5064745;28;37828;-79
2022/03/29 11:49:22;;;;;;;37.00;27.05;;;13.30;99.90;;;;;;5062147;28;38367;-79
2022/03/29 11:52:14;;;;;;;36.60;27.17;;;13.20;99.90;;;;;;5077946;28;37392;-78
2022/03/29 11:54:52;;;;;;;37.08;27.73;;;13.50;99.90;;;;;;5060920;28;48263;-79
2022/03/29 11:57:24;;;;;;;41.42;28.77;;;13.10;99.90;;;;;;5064452;28;39744;-78
2022/03/29 11:59:55;;;;;;;37.88;28.35;;;12.70;99.90;;;;;;5062420;28;39009;-78
2022/03/29 12:02:23;;;;;;;42.40;29.17;;;13.00;99.90;;;;;;5079849;28;36596;-79
2022/03/29 12:04:50;;;;;;;38.97;27.17;;;13.40;99.90;;;;;;5067946;28;38664;-80
2022/03/29 12:07:32;;;;;;;37.67;26.38;;;13.50;99.90;;;;;;5061492;28;37610;-78
2022/03/29 12:09:58;;;;;;;39.88;27.83;;;13.70;99.90;;;;;;5067165;28;37789;-76
2022/03/29 12:12:24;;;;;;;36.97;27.25;;;14.50;99.90;;;;;;5060583;28;36769;-76
2022/03/29 12:15:04;;;;;;;38.90;27.77;;;14.40;99.90;;;;;;5060601;28;37861;-77
2022/03/29 12:17:30;;;;;;;38.35;27.15;;;14.40;99.90;;;;;;5061728;27;48351;-76
2022/03/29 12:19:57;;;;;;;37.83;28.83;;;14.30;99.90;;;;;;5060818;28;37571;-77
2022/03/29 12:22:26;;;;;;;40.60;28.48;;;14.20;99.90;;;;;;5059069;27;39185;-76
2022/03/29 12:24:55;;;;;;;39.50;27.75;;;14.30;99.90;;;;;;5059559;28;39571;-76
2022/03/29 12:27:22;;;;;;;40.83;29.25;;;14.70;99.90;;;;;;5060457;28;39239;-76
2022/03/29 12:30:07;;;;;;;38.13;28.75;;;14.90;99.90;;;;;;5060169;28;38493;-76
2022/03/29 12:32:41;;;;;;;37.80;29.13;;;15.40;99.90;;;;;;5057531;28;47310;-76
2022/03/29 12:35:15;;;;;;;38.45;28.17;;;15.30;99.90;;;;;;5053924;28;39567;-77
2022/03/29 12:38:00;;;;;;;36.97;29.30;;;15.20;99.90;;;;;;5063202;28;38808;-76
2022/03/29 12:40:26;;;;;;;34.25;26.80;;;15.10;99.90;;;;;;5061329;28;47624;-76
2022/03/29 12:43:02;;;;;;;36.38;28.38;;;15.50;99.90;;;;;;5060831;28;38882;-77
2022/03/29 12:45:28;;;;;;;40.63;30.10;;;15.80;99.90;;;;;;5060523;28;47216;-76
2022/03/29 12:47:56;;;;;;;38.15;29.23;;;16.20;99.90;;;;;;5060599;28;37453;-76
2022/03/29 12:50:22;;;;;;;38.75;27.60;;;16.10;99.90;;;;;;5060467;28;40049;-76
2022/03/29 12:52:48;;;;;;;33.22;27.35;;;15.60;99.90;;;;;;5059558;28;36936;-76
2022/03/29 12:55:18;;;;;;;38.22;28.65;;;15.20;99.90;;;;;;5061187;28;38992;-77
2022/03/29 12:57:45;;;;;;;36.05;27.30;;;14.70;99.90;;;;;;5058457;28;39134;-77